Whitchurch-Stouffville, Canada
Current Conditions -  °F | °C
As of 11:00 PM on Saturday 22 Nov 2014 (Local Time) from CYKZ Reporting Station
Light Rain Light Rain  
Wind Chill: 37°   Ceiling: 700
Heat Index: 41°   Visibility: 3mi
Dew Point: 41°   Wind: 6mph
Humidity: 100%   Direction: 220°SW
Pressure: 29.92"   Gusts: NA
Location:  43.97°N, 79.25°W
Report Text: CYKZ 230400Z 22005KT 3SM -RA BR FEW004 OVC007 05/05 A2992 RMKSF1ST7 SLP141
Loading
Personal Weather Stations






























Interactive Weather Map New forecast layout! Learn more

10-Day Weather Forecast

Advertisements
Track Severe Weather on mobile